sensor_id;sensor_type;location;lat;lon;timestamp;pressure;altitude;pressure_sealevel;temperature;humidity
51460;BME280;37534;39.772;2.718;2023-08-31T00:02:10;101160.28;;;18.70;100.00
51460;BME280;37534;39.772;2.718;2023-08-31T00:04:35;101131.91;;;18.47;100.00
51460;BME280;37534;39.772;2.718;2023-08-31T00:07:01;101161.09;;;18.55;100.00
51460;BME280;37534;39.772;2.718;2023-08-31T00:09:26;101161.56;;;18.46;100.00
51460;BME280;37534;39.772;2.718;2023-08-31T00:11:52;101146.69;;;18.30;100.00
51460;BME280;37534;39.772;2.718;2023-08-31T00:14:18;101172.94;;;18.45;100.00
51460;BME280;37534;39.772;2.718;2023-08-31T00:16:44;101147.19;;;18.37;100.00
51460;BME280;37534;39.772;2.718;2023-08-31T00:19:11;101166.91;;;18.60;100.00
51460;BME280;37534;39.772;2.718;2023-08-31T00:21:37;101153.47;;;18.50;100.00
51460;BME280;37534;39.772;2.718;2023-08-31T00:24:03;101156.06;;;18.34;100.00
51460;BME280;37534;39.772;2.718;2023-08-31T00:26:29;101159.13;;;18.25;100.00
51460;BME280;37534;39.772;2.718;2023-08-31T00:28:57;101149.69;;;18.22;100.00
51460;BME280;37534;39.772;2.718;2023-08-31T00:31:23;101163.75;;;18.37;100.00
51460;BME280;37534;39.772;2.718;2023-08-31T00:33:49;101167.09;;;18.39;100.00
51460;BME280;37534;39.772;2.718;2023-08-31T00:36:15;101159.00;;;18.28;100.00
51460;BME280;37534;39.772;2.718;2023-08-31T00:38:40;101168.06;;;18.21;100.00
51460;BME280;37534;39.772;2.718;2023-08-31T00:41:06;101172.34;;;18.04;100.00
51460;BME280;37534;39.772;2.718;2023-08-31T00:43:31;101180.09;;;18.06;100.00
51460;BME280;37534;39.772;2.718;2023-08-31T00:45:57;101172.66;;;17.98;100.00
51460;BME280;37534;39.772;2.718;2023-08-31T00:48:24;101176.81;;;18.02;100.00
51460;BME280;37534;39.772;2.718;2023-08-31T00:50:50;101171.50;;;18.04;100.00
51460;BME280;37534;39.772;2.718;2023-08-31T00:53:16;101179.13;;;18.09;100.00
51460;BME280;37534;39.772;2.718;2023-08-31T00:55:44;101184.16;;;18.12;100.00
51460;BME280;37534;39.772;2.718;2023-08-31T00:58:10;101179.28;;;18.05;100.00
51460;BME280;37534;39.772;2.718;2023-08-31T01:01:00;101185.88;;;18.13;100.00
51460;BME280;37534;39.772;2.718;2023-08-31T01:03:40;101176.03;;;18.18;100.00
51460;BME280;37534;39.772;2.718;2023-08-31T01:09:04;101170.50;;;18.24;100.00
51460;BME280;37534;39.772;2.718;2023-08-31T01:12:06;101172.75;;;18.14;100.00
51460;BME280;37534;39.772;2.718;2023-08-31T01:14:42;101174.66;;;18.11;100.00
51460;BME280;37534;39.772;2.718;2023-08-31T01:17:12;101162.66;;;18.07;100.00
51460;BME280;37534;39.772;2.718;2023-08-31T01:19:45;101165.97;;;18.10;100.00
51460;BME280;37534;39.772;2.718;2023-08-31T01:22:43;101165.44;;;18.03;100.00
51460;BME280;37534;39.772;2.718;2023-08-31T01:25:12;101153.69;;;17.95;100.00
51460;BME280;37534;39.772;2.718;2023-08-31T01:27:38;101163.19;;;17.96;100.00
51460;BME280;37534;39.772;2.718;2023-08-31T01:30:05;101160.59;;;17.96;100.00
51460;BME280;37534;39.772;2.718;2023-08-31T01:32:31;101168.34;;;17.97;100.00
51460;BME280;37534;39.772;2.718;2023-08-31T01:34:58;101157.47;;;17.89;100.00
51460;BME280;37534;39.772;2.718;2023-08-31T01:37:47;101170.81;;;18.00;100.00
51460;BME280;37534;39.772;2.718;2023-08-31T01:40:18;101167.50;;;17.97;100.00
51460;BME280;37534;39.772;2.718;2023-08-31T01:42:46;101169.50;;;17.92;100.00
51460;BME280;37534;39.772;2.718;2023-08-31T01:45:16;101142.06;;;17.83;100.00
51460;BME280;37534;39.772;2.718;2023-08-31T01:47:44;101147.28;;;17.83;100.00
51460;BME280;37534;39.772;2.718;2023-08-31T01:50:11;101170.06;;;17.98;100.00
51460;BME280;37534;39.772;2.718;2023-08-31T01:52:37;101180.19;;;18.04;100.00
51460;BME280;37534;39.772;2.718;2023-08-31T01:55:07;101177.28;;;18.11;100.00
51460;BME280;37534;39.772;2.718;2023-08-31T01:57:33;101165.13;;;18.10;100.00
51460;BME280;37534;39.772;2.718;2023-08-31T01:59:59;101177.25;;;17.93;100.00
51460;BME280;37534;39.772;2.718;2023-08-31T02:02:25;101176.94;;;17.82;100.00
51460;BME280;37534;39.772;2.718;2023-08-31T02:04:51;101176.22;;;17.78;100.00
51460;BME280;37534;39.772;2.718;2023-08-31T02:07:17;101176.38;;;17.75;100.00
51460;BME280;37534;39.772;2.718;2023-08-31T02:09:43;101173.06;;;17.72;100.00
51460;BME280;37534;39.772;2.718;2023-08-31T02:12:09;101177.22;;;17.76;100.00
51460;BME280;37534;39.772;2.718;2023-08-31T02:14:37;101166.38;;;17.66;100.00
51460;BME280;37534;39.772;2.718;2023-08-31T02:17:04;101162.16;;;17.63;100.00
51460;BME280;37534;39.772;2.718;2023-08-31T02:19:29;101177.53;;;17.70;100.00
51460;BME280;37534;39.772;2.718;2023-08-31T02:21:58;101167.22;;;17.66;100.00
51460;BME280;37534;39.772;2.718;2023-08-31T02:24:24;101172.44;;;17.66;100.00
51460;BME280;37534;39.772;2.718;2023-08-31T02:26:49;101178.28;;;17.72;100.00
51460;BME280;37534;39.772;2.718;2023-08-31T02:29:15;101181.72;;;17.72;100.00
51460;BME280;37534;39.772;2.718;2023-08-31T02:31:41;101173.97;;;17.71;100.00
51460;BME280;37534;39.772;2.718;2023-08-31T02:34:07;101182.88;;;17.85;100.00
51460;BME280;37534;39.772;2.718;2023-08-31T02:36:32;101172.63;;;17.81;100.00
51460;BME280;37534;39.772;2.718;2023-08-31T02:38:58;101183.88;;;18.00;100.00
51460;BME280;37534;39.772;2.718;2023-08-31T02:41:24;101193.69;;;17.95;100.00
51460;BME280;37534;39.772;2.718;2023-08-31T02:43:52;101166.50;;;17.82;100.00
51460;BME280;37534;39.772;2.718;2023-08-31T02:46:18;101180.59;;;17.78;100.00
51460;BME280;37534;39.772;2.718;2023-08-31T02:48:44;101185.66;;;17.81;100.00
51460;BME280;37534;39.772;2.718;2023-08-31T02:51:10;101183.38;;;17.75;100.00
51460;BME280;37534;39.772;2.718;2023-08-31T02:53:35;101177.66;;;17.66;100.00
51460;BME280;37534;39.772;2.718;2023-08-31T02:56:01;101180.19;;;17.68;100.00
51460;BME280;37534;39.772;2.718;2023-08-31T02:58:27;101187.97;;;17.70;100.00
51460;BME280;37534;39.772;2.718;2023-08-31T03:00:53;101183.84;;;17.64;100.00
51460;BME280;37534;39.772;2.718;2023-08-31T03:03:19;101179.50;;;17.64;100.00
51460;BME280;37534;39.772;2.718;2023-08-31T03:05:45;101173.72;;;17.58;100.00
51460;BME280;37534;39.772;2.718;2023-08-31T03:08:10;101173.81;;;17.56;100.00
51460;BME280;37534;39.772;2.718;2023-08-31T03:10:38;101166.13;;;17.53;100.00
51460;BME280;37534;39.772;2.718;2023-08-31T03:13:03;101177.19;;;17.58;100.00
51460;BME280;37534;39.772;2.718;2023-08-31T03:15:29;101175.50;;;17.57;100.00
51460;BME280;37534;39.772;2.718;2023-08-31T03:17:55;101170.41;;;17.54;100.00
51460;BME280;37534;39.772;2.718;2023-08-31T03:20:20;101167.88;;;17.53;100.00
51460;BME280;37534;39.772;2.718;2023-08-31T03:22:46;101182.56;;;17.55;100.00
51460;BME280;37534;39.772;2.718;2023-08-31T03:25:11;101184.78;;;17.63;100.00
51460;BME280;37534;39.772;2.718;2023-08-31T03:27:37;101187.25;;;17.66;100.00
51460;BME280;37534;39.772;2.718;2023-08-31T03:30:03;101191.47;;;17.68;100.00
51460;BME280;37534;39.772;2.718;2023-08-31T03:32:29;101192.63;;;17.63;100.00
51460;BME280;37534;39.772;2.718;2023-08-31T03:34:55;101189.44;;;17.56;100.00
51460;BME280;37534;39.772;2.718;2023-08-31T03:37:20;101197.41;;;17.53;100.00
51460;BME280;37534;39.772;2.718;2023-08-31T03:39:50;101188.25;;;17.44;100.00
51460;BME280;37534;39.772;2.718;2023-08-31T03:42:15;101196.78;;;17.48;100.00
51460;BME280;37534;39.772;2.718;2023-08-31T03:44:41;101200.97;;;17.52;100.00
51460;BME280;37534;39.772;2.718;2023-08-31T03:47:07;101201.88;;;17.51;100.00
51460;BME280;37534;39.772;2.718;2023-08-31T03:49:32;101195.75;;;17.52;100.00
51460;BME280;37534;39.772;2.718;2023-08-31T03:51:59;101196.78;;;17.48;100.00
51460;BME280;37534;39.772;2.718;2023-08-31T03:54:24;101197.97;;;17.60;100.00
51460;BME280;37534;39.772;2.718;2023-08-31T03:56:50;101194.19;;;17.48;100.00
51460;BME280;37534;39.772;2.718;2023-08-31T03:59:16;101192.06;;;17.37;100.00
51460;BME280;37534;39.772;2.718;2023-08-31T04:01:41;101192.94;;;17.38;100.00
51460;BME280;37534;39.772;2.718;2023-08-31T04:04:07;101196.44;;;17.37;100.00
51460;BME280;37534;39.772;2.718;2023-08-31T04:06:33;101208.53;;;17.39;100.00
51460;BME280;37534;39.772;2.718;2023-08-31T04:08:59;101188.00;;;17.32;100.00
51460;BME280;37534;39.772;2.718;2023-08-31T04:11:25;101208.16;;;17.47;100.00
51460;BME280;37534;39.772;2.718;2023-08-31T04:13:51;101196.19;;;17.43;100.00
51460;BME280;37534;39.772;2.718;2023-08-31T04:16:17;101198.69;;;17.44;100.00
51460;BME280;37534;39.772;2.718;2023-08-31T04:18:42;101191.66;;;17.46;100.00
51460;BME280;37534;39.772;2.718;2023-08-31T04:21:08;101205.59;;;17.64;100.00
51460;BME280;37534;39.772;2.718;2023-08-31T04:23:34;101200.53;;;17.61;100.00
51460;BME280;37534;39.772;2.718;2023-08-31T04:25:59;101193.91;;;17.54;100.00
51460;BME280;37534;39.772;2.718;2023-08-31T04:28:25;101196.31;;;17.59;100.00
51460;BME280;37534;39.772;2.718;2023-08-31T04:30:51;101200.41;;;17.45;100.00
51460;BME280;37534;39.772;2.718;2023-08-31T04:33:18;101197.22;;;17.39;100.00
51460;BME280;37534;39.772;2.718;2023-08-31T04:35:43;101205.91;;;17.39;100.00
51460;BME280;37534;39.772;2.718;2023-08-31T04:38:09;101205.13;;;17.37;100.00
51460;BME280;37534;39.772;2.718;2023-08-31T04:40:35;101201.66;;;17.37;100.00
51460;BME280;37534;39.772;2.718;2023-08-31T04:43:02;101218.09;;;17.39;100.00
51460;BME280;37534;39.772;2.718;2023-08-31T04:45:28;101218.16;;;17.37;100.00
51460;BME280;37534;39.772;2.718;2023-08-31T04:47:53;101217.25;;;17.38;100.00
51460;BME280;37534;39.772;2.718;2023-08-31T04:50:19;101219.94;;;17.37;100.00
51460;BME280;37534;39.772;2.718;2023-08-31T04:52:44;101218.44;;;17.31;100.00
51460;BME280;37534;39.772;2.718;2023-08-31T04:55:12;101224.38;;;17.35;100.00
51460;BME280;37534;39.772;2.718;2023-08-31T04:57:38;101221.00;;;17.33;100.00
51460;BME280;37534;39.772;2.718;2023-08-31T05:00:05;101231.06;;;17.40;100.00
51460;BME280;37534;39.772;2.718;2023-08-31T05:02:34;101219.00;;;17.19;100.00
51460;BME280;37534;39.772;2.718;2023-08-31T05:05:00;101221.00;;;17.33;100.00
51460;BME280;37534;39.772;2.718;2023-08-31T05:07:25;101219.28;;;17.32;100.00
51460;BME280;37534;39.772;2.718;2023-08-31T05:09:51;101225.72;;;17.24;100.00
51460;BME280;37534;39.772;2.718;2023-08-31T05:12:16;101238.09;;;17.19;100.00
51460;BME280;37534;39.772;2.718;2023-08-31T05:14:43;101227.03;;;17.14;100.00
51460;BME280;37534;39.772;2.718;2023-08-31T05:17:08;101240.44;;;17.25;100.00
51460;BME280;37534;39.772;2.718;2023-08-31T05:19:34;101231.91;;;17.41;100.00
51460;BME280;37534;39.772;2.718;2023-08-31T05:22:00;101248.03;;;17.30;100.00
51460;BME280;37534;39.772;2.718;2023-08-31T05:24:25;101258.41;;;17.32;100.00
51460;BME280;37534;39.772;2.718;2023-08-31T05:26:51;101253.41;;;17.27;100.00
51460;BME280;37534;39.772;2.718;2023-08-31T05:29:17;101265.34;;;17.33;100.00
51460;BME280;37534;39.772;2.718;2023-08-31T05:31:42;101272.72;;;17.42;100.00
51460;BME280;37534;39.772;2.718;2023-08-31T05:34:11;101272.75;;;17.61;100.00
51460;BME280;37534;39.772;2.718;2023-08-31T05:36:36;101269.00;;;17.66;100.00
51460;BME280;37534;39.772;2.718;2023-08-31T05:39:02;101270.47;;;17.53;100.00
51460;BME280;37534;39.772;2.718;2023-08-31T05:41:28;101276.69;;;17.51;100.00
51460;BME280;37534;39.772;2.718;2023-08-31T05:43:54;101275.84;;;17.50;100.00
51460;BME280;37534;39.772;2.718;2023-08-31T05:46:19;101281.19;;;17.47;100.00
51460;BME280;37534;39.772;2.718;2023-08-31T05:48:45;101286.75;;;17.58;100.00
51460;BME280;37534;39.772;2.718;2023-08-31T05:51:10;101280.75;;;17.56;100.00
51460;BME280;37534;39.772;2.718;2023-08-31T05:53:36;101297.56;;;17.70;100.00
51460;BME280;37534;39.772;2.718;2023-08-31T05:56:03;101295.16;;;17.65;100.00
51460;BME280;37534;39.772;2.718;2023-08-31T05:58:33;101300.38;;;17.65;100.00
51460;BME280;37534;39.772;2.718;2023-08-31T06:00:59;101310.75;;;17.66;100.00
51460;BME280;37534;39.772;2.718;2023-08-31T06:03:25;101314.06;;;17.70;100.00
51460;BME280;37534;39.772;2.718;2023-08-31T06:05:51;101313.34;;;17.66;100.00
51460;BME280;37534;39.772;2.718;2023-08-31T06:08:17;101299.47;;;17.66;100.00
51460;BME280;37534;39.772;2.718;2023-08-31T06:10:45;101319.53;;;17.83;100.00
51460;BME280;37534;39.772;2.718;2023-08-31T06:13:10;101328.88;;;17.89;100.00
51460;BME280;37534;39.772;2.718;2023-08-31T06:15:36;101320.47;;;18.01;100.00
51460;BME280;37534;39.772;2.718;2023-08-31T06:18:01;101335.47;;;18.15;100.00
51460;BME280;37534;39.772;2.718;2023-08-31T06:20:28;101332.88;;;18.15;100.00
51460;BME280;37534;39.772;2.718;2023-08-31T06:22:53;101328.72;;;18.11;100.00
51460;BME280;37534;39.772;2.718;2023-08-31T06:25:19;101333.78;;;18.14;100.00
51460;BME280;37534;39.772;2.718;2023-08-31T06:27:44;101335.34;;;18.18;100.00
51460;BME280;37534;39.772;2.718;2023-08-31T06:30:11;101347.06;;;18.28;100.00
51460;BME280;37534;39.772;2.718;2023-08-31T06:32:44;101351.50;;;18.43;100.00
51460;BME280;37534;39.772;2.718;2023-08-31T06:35:11;101350.69;;;18.60;100.00
51460;BME280;37534;39.772;2.718;2023-08-31T06:37:38;101357.28;;;18.87;100.00
51460;BME280;37534;39.772;2.718;2023-08-31T06:40:05;101350.63;;;18.97;100.00
51460;BME280;37534;39.772;2.718;2023-08-31T06:42:30;101352.13;;;19.18;100.00
51460;BME280;37534;39.772;2.718;2023-08-31T06:44:56;101357.19;;;19.39;100.00
51460;BME280;37534;39.772;2.718;2023-08-31T06:47:22;101350.38;;;19.52;100.00
51460;BME280;37534;39.772;2.718;2023-08-31T06:49:48;101355.53;;;19.70;100.00
51460;BME280;37534;39.772;2.718;2023-08-31T06:52:13;101349.56;;;19.84;100.00
51460;BME280;37534;39.772;2.718;2023-08-31T06:54:39;101351.44;;;19.98;100.00
51460;BME280;37534;39.772;2.718;2023-08-31T06:57:05;101348.22;;;20.08;100.00
51460;BME280;37534;39.772;2.718;2023-08-31T06:59:30;101345.75;;;20.21;100.00
51460;BME280;37534;39.772;2.718;2023-08-31T07:01:56;101353.50;;;20.39;100.00
51460;BME280;37534;39.772;2.718;2023-08-31T07:04:21;101352.81;;;20.51;100.00
51460;BME280;37534;39.772;2.718;2023-08-31T07:06:47;101342.81;;;20.58;100.00
51460;BME280;37534;39.772;2.718;2023-08-31T07:09:12;101350.38;;;20.78;100.00
51460;BME280;37534;39.772;2.718;2023-08-31T07:11:38;101348.25;;;20.99;100.00
51460;BME280;37534;39.772;2.718;2023-08-31T07:14:04;101349.88;;;21.16;100.00
51460;BME280;37534;39.772;2.718;2023-08-31T07:16:29;101348.66;;;21.36;100.00
51460;BME280;37534;39.772;2.718;2023-08-31T07:18:55;101345.03;;;21.53;100.00
51460;BME280;37534;39.772;2.718;2023-08-31T07:21:20;101349.38;;;21.81;100.00
51460;BME280;37534;39.772;2.718;2023-08-31T07:23:46;101362.25;;;22.13;100.00
51460;BME280;37534;39.772;2.718;2023-08-31T07:26:11;101367.63;;;22.39;100.00
51460;BME280;37534;39.772;2.718;2023-08-31T07:28:37;101379.81;;;22.67;100.00
51460;BME280;37534;39.772;2.718;2023-08-31T07:31:06;101377.00;;;22.96;100.00
51460;BME280;37534;39.772;2.718;2023-08-31T07:33:33;101367.78;;;23.16;100.00
51460;BME280;37534;39.772;2.718;2023-08-31T07:36:00;101381.47;;;23.47;100.00
51460;BME280;37534;39.772;2.718;2023-08-31T07:38:27;101377.84;;;23.73;100.00
51460;BME280;37534;39.772;2.718;2023-08-31T07:40:53;101387.81;;;23.94;100.00
51460;BME280;37534;39.772;2.718;2023-08-31T07:43:18;101379.81;;;24.20;100.00
51460;BME280;37534;39.772;2.718;2023-08-31T07:45:44;101399.28;;;24.54;100.00
51460;BME280;37534;39.772;2.718;2023-08-31T07:48:10;101397.84;;;24.85;100.00
51460;BME280;37534;39.772;2.718;2023-08-31T07:50:35;101406.75;;;25.18;100.00
51460;BME280;37534;39.772;2.718;2023-08-31T07:53:01;101407.44;;;25.45;95.41
51460;BME280;37534;39.772;2.718;2023-08-31T07:55:26;101412.22;;;25.62;90.21
51460;BME280;37534;39.772;2.718;2023-08-31T07:57:52;101409.44;;;25.86;88.48
51460;BME280;37534;39.772;2.718;2023-08-31T08:00:18;101416.41;;;26.10;88.28
51460;BME280;37534;39.772;2.718;2023-08-31T08:02:46;101427.84;;;26.43;89.25
51460;BME280;37534;39.772;2.718;2023-08-31T08:05:12;101425.06;;;26.77;84.79
51460;BME280;37534;39.772;2.718;2023-08-31T08:07:37;101432.03;;;27.20;78.06
51460;BME280;37534;39.772;2.718;2023-08-31T08:10:03;101427.94;;;27.58;70.68
51460;BME280;37534;39.772;2.718;2023-08-31T08:12:42;101419.47;;;28.14;70.61
51460;BME280;37534;39.772;2.718;2023-08-31T08:15:12;101428.72;;;28.78;67.86
51460;BME280;37534;39.772;2.718;2023-08-31T08:17:37;101438.22;;;29.48;62.15
51460;BME280;37534;39.772;2.718;2023-08-31T08:20:04;101437.03;;;30.16;60.46
51460;BME280;37534;39.772;2.718;2023-08-31T08:22:30;101441.09;;;31.00;56.53
51460;BME280;37534;39.772;2.718;2023-08-31T08:24:56;101452.72;;;31.43;53.47
51460;BME280;37534;39.772;2.718;2023-08-31T08:27:21;101454.19;;;31.72;51.55
51460;BME280;37534;39.772;2.718;2023-08-31T08:29:47;101456.19;;;31.78;49.70
51460;BME280;37534;39.772;2.718;2023-08-31T08:32:13;101463.75;;;32.91;49.08
51460;BME280;37534;39.772;2.718;2023-08-31T08:34:38;101466.94;;;33.98;45.84
51460;BME280;37534;39.772;2.718;2023-08-31T08:37:04;101457.75;;;33.13;44.34
51460;BME280;37534;39.772;2.718;2023-08-31T08:39:31;101467.25;;;34.35;44.62
51460;BME280;37534;39.772;2.718;2023-08-31T08:42:00;101436.22;;;35.31;42.13
51460;BME280;37534;39.772;2.718;2023-08-31T08:44:32;101461.16;;;36.13;39.09
51460;BME280;37534;39.772;2.718;2023-08-31T08:46:59;101460.16;;;36.79;37.55
51460;BME280;37534;39.772;2.718;2023-08-31T08:49:26;101462.03;;;37.13;35.95
51460;BME280;37534;39.772;2.718;2023-08-31T08:51:52;101462.34;;;37.66;34.86
51460;BME280;37534;39.772;2.718;2023-08-31T08:54:22;101462.22;;;38.01;34.50
51460;BME280;37534;39.772;2.718;2023-08-31T08:56:47;101456.06;;;38.14;34.87
51460;BME280;37534;39.772;2.718;2023-08-31T08:59:14;101455.91;;;38.56;34.01
51460;BME280;37534;39.772;2.718;2023-08-31T09:01:39;101458.38;;;39.04;33.60
51460;BME280;37534;39.772;2.718;2023-08-31T09:04:05;101461.13;;;39.56;32.77
51460;BME280;37534;39.772;2.718;2023-08-31T09:06:34;101462.91;;;39.76;32.33
51460;BME280;37534;39.772;2.718;2023-08-31T09:09:00;101469.66;;;40.37;32.22
51460;BME280;37534;39.772;2.718;2023-08-31T09:11:26;101473.59;;;40.84;31.38
51460;BME280;37534;39.772;2.718;2023-08-31T09:13:52;101472.66;;;40.97;30.90
51460;BME280;37534;39.772;2.718;2023-08-31T09:16:29;101441.31;;;38.03;31.24
51460;BME280;37534;39.772;2.718;2023-08-31T09:18:56;101458.84;;;38.61;32.08
51460;BME280;37534;39.772;2.718;2023-08-31T09:21:22;101468.09;;;39.77;31.52
51460;BME280;37534;39.772;2.718;2023-08-31T09:23:58;101463.25;;;40.56;31.93
51460;BME280;37534;39.772;2.718;2023-08-31T09:26:24;101469.63;;;40.62;30.57
51460;BME280;37534;39.772;2.718;2023-08-31T09:28:50;101451.28;;;40.89;30.70
51460;BME280;37534;39.772;2.718;2023-08-31T09:31:16;101462.09;;;41.08;29.95
51460;BME280;37534;39.772;2.718;2023-08-31T09:33:51;101471.13;;;40.83;31.38
51460;BME280;37534;39.772;2.718;2023-08-31T09:36:17;101476.75;;;41.18;30.67
51460;BME280;37534;39.772;2.718;2023-08-31T09:38:44;101488.00;;;41.40;30.72
51460;BME280;37534;39.772;2.718;2023-08-31T09:41:10;101472.47;;;41.85;30.38
51460;BME280;37534;39.772;2.718;2023-08-31T09:43:36;101477.53;;;41.93;30.32
51460;BME280;37534;39.772;2.718;2023-08-31T09:46:03;101489.59;;;41.97;29.79
51460;BME280;37534;39.772;2.718;2023-08-31T09:48:29;101490.22;;;41.80;29.71
51460;BME280;37534;39.772;2.718;2023-08-31T09:50:55;101493.13;;;41.67;29.97
51460;BME280;37534;39.772;2.718;2023-08-31T09:53:21;101496.09;;;41.59;30.09
51460;BME280;37534;39.772;2.718;2023-08-31T09:55:51;101490.47;;;41.79;29.71
51460;BME280;37534;39.772;2.718;2023-08-31T09:58:19;101492.28;;;41.67;29.60
51460;BME280;37534;39.772;2.718;2023-08-31T10:00:46;101496.47;;;41.63;29.92
51460;BME280;37534;39.772;2.718;2023-08-31T10:03:12;101486.47;;;41.82;29.29
51460;BME280;37534;39.772;2.718;2023-08-31T10:05:44;101486.97;;;41.90;28.93
51460;BME280;37534;39.772;2.718;2023-08-31T10:08:11;101479.78;;;41.66;29.28
51460;BME280;37534;39.772;2.718;2023-08-31T10:10:37;101484.84;;;41.44;29.34
51460;BME280;37534;39.772;2.718;2023-08-31T10:13:04;101480.19;;;41.32;29.47
51460;BME280;37534;39.772;2.718;2023-08-31T10:15:34;101487.41;;;40.51;29.76
51460;BME280;37534;39.772;2.718;2023-08-31T10:18:04;101472.66;;;40.97;29.61
51460;BME280;37534;39.772;2.718;2023-08-31T10:20:31;101484.97;;;41.12;28.98
51460;BME280;37534;39.772;2.718;2023-08-31T10:23:04;101472.19;;;41.56;28.72
51460;BME280;37534;39.772;2.718;2023-08-31T10:28:22;101475.41;;;41.83;28.03
51460;BME280;37534;39.772;2.718;2023-08-31T10:31:04;101469.84;;;41.59;27.66
51460;BME280;37534;39.772;2.718;2023-08-31T10:33:43;101472.63;;;41.71;28.45
51460;BME280;37534;39.772;2.718;2023-08-31T10:38:39;101463.97;;;41.93;27.60
51460;BME280;37534;39.772;2.718;2023-08-31T10:43:54;101478.28;;;41.51;27.61
51460;BME280;37534;39.772;2.718;2023-08-31T10:46:33;101479.59;;;41.49;28.22
51460;BME280;37534;39.772;2.718;2023-08-31T10:51:43;101470.66;;;41.78;27.81
51460;BME280;37534;39.772;2.718;2023-08-31T10:56:53;101472.91;;;42.12;27.52
51460;BME280;37534;39.772;2.718;2023-08-31T10:59:23;101465.41;;;42.26;27.16
51460;BME280;37534;39.772;2.718;2023-08-31T11:04:21;101461.53;;;41.91;28.04
51460;BME280;37534;39.772;2.718;2023-08-31T11:06:47;101450.03;;;42.08;27.52
51460;BME280;37534;39.772;2.718;2023-08-31T11:09:21;101447.91;;;42.10;27.48
51460;BME280;37534;39.772;2.718;2023-08-31T11:11:47;101458.38;;;42.06;27.55
51460;BME280;37534;39.772;2.718;2023-08-31T11:14:14;101452.31;;;41.92;27.76
51460;BME280;37534;39.772;2.718;2023-08-31T11:16:41;101442.75;;;42.20;26.90
51460;BME280;37534;39.772;2.718;2023-08-31T11:19:06;101446.81;;;42.53;27.67
51460;BME280;37534;39.772;2.718;2023-08-31T11:21:32;101458.34;;;42.48;26.37
51460;BME280;37534;39.772;2.718;2023-08-31T11:23:58;101450.31;;;40.83;29.12
51460;BME280;37534;39.772;2.718;2023-08-31T11:26:26;101444.75;;;41.34;28.98
51460;BME280;37534;39.772;2.718;2023-08-31T11:28:51;101441.78;;;41.72;28.13
51460;BME280;37534;39.772;2.718;2023-08-31T11:31:24;101442.59;;;41.73;27.83
51460;BME280;37534;39.772;2.718;2023-08-31T11:33:49;101434.44;;;41.42;25.68
51460;BME280;37534;39.772;2.718;2023-08-31T11:36:15;101449.78;;;41.67;27.42
51460;BME280;37534;39.772;2.718;2023-08-31T11:38:43;101446.53;;;41.89;28.30
51460;BME280;37534;39.772;2.718;2023-08-31T11:41:09;101438.38;;;42.07;26.91
51460;BME280;37534;39.772;2.718;2023-08-31T11:43:36;101443.63;;;42.68;26.58
51460;BME280;37534;39.772;2.718;2023-08-31T11:46:02;101444.22;;;42.70;25.90
51460;BME280;37534;39.772;2.718;2023-08-31T11:48:28;101447.03;;;42.51;27.77
51460;BME280;37534;39.772;2.718;2023-08-31T11:50:54;101440.03;;;42.08;27.91
51460;BME280;37534;39.772;2.718;2023-08-31T11:53:20;101448.44;;;42.00;27.80
51460;BME280;37534;39.772;2.718;2023-08-31T11:55:52;101436.69;;;42.06;28.47
51460;BME280;37534;39.772;2.718;2023-08-31T11:58:21;101451.88;;;42.38;27.80
51460;BME280;37534;39.772;2.718;2023-08-31T12:00:59;101447.66;;;42.53;27.90
51460;BME280;37534;39.772;2.718;2023-08-31T12:03:26;101434.88;;;42.42;27.70
51460;BME280;37534;39.772;2.718;2023-08-31T12:05:52;101454.31;;;42.39;28.02
51460;BME280;37534;39.772;2.718;2023-08-31T12:08:24;101438.63;;;42.88;27.83
51460;BME280;37534;39.772;2.718;2023-08-31T12:10:51;101443.34;;;43.05;27.54
51460;BME280;37534;39.772;2.718;2023-08-31T12:13:17;101454.94;;;42.41;28.65
51460;BME280;37534;39.772;2.718;2023-08-31T12:15:43;101448.44;;;42.66;27.94
51460;BME280;37534;39.772;2.718;2023-08-31T12:18:11;101456.94;;;42.69;28.41
51460;BME280;37534;39.772;2.718;2023-08-31T12:20:50;101450.53;;;42.28;28.21
51460;BME280;37534;39.772;2.718;2023-08-31T12:23:17;101442.31;;;41.93;28.35
51460;BME280;37534;39.772;2.718;2023-08-31T12:28:12;101451.69;;;42.09;28.70
51460;BME280;37534;39.772;2.718;2023-08-31T12:30:38;101453.25;;;42.40;28.45
51460;BME280;37534;39.772;2.718;2023-08-31T12:33:04;101453.97;;;42.47;28.57
51460;BME280;37534;39.772;2.718;2023-08-31T12:35:30;101449.59;;;42.46;28.27
51460;BME280;37534;39.772;2.718;2023-08-31T12:37:56;101450.56;;;42.76;28.58
51460;BME280;37534;39.772;2.718;2023-08-31T12:40:22;101447.59;;;42.89;28.60
51460;BME280;37534;39.772;2.718;2023-08-31T12:42:48;101440.22;;;42.61;28.51
51460;BME280;37534;39.772;2.718;2023-08-31T12:45:13;101442.66;;;42.98;28.14
51460;BME280;37534;39.772;2.718;2023-08-31T12:47:39;101441.38;;;42.77;28.18
51460;BME280;37534;39.772;2.718;2023-08-31T12:50:05;101450.06;;;42.31;27.95
51460;BME280;37534;39.772;2.718;2023-08-31T12:52:31;101440.88;;;42.21;28.04
51460;BME280;37534;39.772;2.718;2023-08-31T12:54:56;101446.16;;;42.39;28.35
51460;BME280;37534;39.772;2.718;2023-08-31T12:57:22;101436.63;;;42.13;28.23
51460;BME280;37534;39.772;2.718;2023-08-31T12:59:47;101447.81;;;42.16;28.36
51460;BME280;37534;39.772;2.718;2023-08-31T13:02:13;101430.88;;;42.57;27.99
51460;BME280;37534;39.772;2.718;2023-08-31T13:04:38;101432.72;;;43.15;27.75